Medford

Airport
ICAO code: 
KMFR
Summary
ICAO Region: 
NAM
Territory: 
Location: 
Medford, Jackson County, Oregon,
Coordinates: 
Aerial View: 
42° 22' 27.116" N, 122° 52' 22.804" W
Airport BS: 
Non Avian Wildlife Hazards to Aircraft
Metar
Observation
KMFR 021553Z 00000KT 1/2SM R14/4500V6000FT FG OVC002 05/05 A3027 RMK AO2 SLP256 T00500050
Station
Medford, Rogue Valley International Airport
Date/Time
2021-12-02 15:53:00
Wind direction
Wind speed
00 kts
Lowest cloud amount
overcast
Temperature
5°C
Dew point
5°C
Humidity
100%
Weather condition
fog

Description

Rogue Valley International-Medford Airport is a public airport located 5 km north of downtown Medford in Jackson County, Oregon, USA. In addition to Jackson County, the airport serves seven nearby counties in southwest Oregon.

Climatology

Dry-summer subtropical ”Mediterranean" climate (Köppen climate classification Csa) - characterized by hot, dry summers and mild winters. During the summer, subtropical high pressure cells dominate, making rainfall unlikely except for the occasional thunderstorm. In the winter, periodic storms bring rain (snow at higher elevations).

Runways

Designator Length Width Surface Rops
9/27 956 30 ASP Yes/Yes
14/32 2682 46 ASP Yes/Yes
Airport map: 
Aerial View: 

Accidents and Serious Incidents at or in the vicinity of KMFR

SKYbrary Partners:

Safety knowledge contributed by: